Time;durP1;ratioP1;P1;durP2;ratioP2;P2;SDS_P1;SDS_P2;PMS_P1;PMS_P2;Temp;Humidity;BMP_temperature;BMP_pressure;BME280_temperature;BME280_humidity;BME280_pressure;Samples;Min_cycle;Max_cycle;Signal;HPM_P1;HPM_P2
2023/02/22 00:00:47;;;;;;;2.70;1.58;;;1.90;97.70;;;;;;2069744;28;20185;-67
2023/02/22 00:02:09;;;;;;;3.70;1.50;;;1.90;97.80;;;;;;2068517;28;20248;-64
2023/02/22 00:03:24;;;;;;;3.95;1.90;;;1.80;98.40;;;;;;2069827;28;20185;-67
2023/02/22 00:04:30;;;;;;;2.17;1.55;;;1.80;98.10;;;;;;2067261;28;20658;-63
2023/02/22 00:05:38;;;;;;;4.10;1.63;;;1.80;98.20;;;;;;2069268;28;20562;-64
2023/02/22 00:06:45;;;;;;;4.72;1.95;;;1.80;98.00;;;;;;2066499;28;20201;-63
2023/02/22 00:07:50;;;;;;;3.38;1.77;;;1.80;98.00;;;;;;2069736;28;20216;-66
2023/02/22 00:08:57;;;;;;;3.35;2.08;;;1.80;98.40;;;;;;2069583;28;20649;-64
2023/02/22 00:10:01;;;;;;;2.72;1.75;;;1.80;97.90;;;;;;2066387;28;20279;-64
2023/02/22 00:11:07;;;;;;;3.00;1.77;;;1.80;97.90;;;;;;2069664;28;20185;-63
2023/02/22 00:12:09;;;;;;;3.80;1.98;;;1.80;98.00;;;;;;2069805;28;20620;-63
2023/02/22 00:13:14;;;;;;;4.88;2.10;;;1.80;98.10;;;;;;2069856;28;20567;-63
2023/02/22 00:14:20;;;;;;;3.47;2.20;;;1.70;98.10;;;;;;2065721;28;20181;-63
2023/02/22 00:15:28;;;;;;;3.03;1.80;;;1.80;98.20;;;;;;2068958;28;20799;-63
2023/02/22 00:16:31;;;;;;;3.55;2.15;;;1.80;98.20;;;;;;2069240;28;20233;-63
2023/02/22 00:17:37;;;;;;;3.55;2.00;;;1.70;98.20;;;;;;2069598;28;20186;-64
2023/02/22 00:18:43;;;;;;;3.63;2.15;;;1.70;98.30;;;;;;2066310;28;20191;-63
2023/02/22 00:19:49;;;;;;;3.42;1.70;;;1.70;98.40;;;;;;2069770;28;20217;-64
2023/02/22 00:20:59;;;;;;;3.75;1.67;;;1.60;98.40;;;;;;2069743;28;20182;-63
2023/02/22 00:22:00;;;;;;;3.72;1.63;;;1.70;98.60;;;;;;2069008;28;20637;-63
2023/02/22 00:23:07;;;;;;;2.25;1.67;;;1.60;98.40;;;;;;2068974;28;20617;-63
2023/02/22 00:24:21;;;;;;;2.30;1.60;;;1.60;98.40;;;;;;2069228;28;20209;-63
2023/02/22 00:25:27;;;;;;;2.17;1.80;;;1.60;98.40;;;;;;2066228;28;20190;-63
2023/02/22 00:26:33;;;;;;;2.90;1.63;;;1.60;98.70;;;;;;2069696;28;20188;-63
2023/02/22 00:27:39;;;;;;;4.88;2.22;;;1.50;98.90;;;;;;2069612;28;20194;-63
2023/02/22 00:28:48;;;;;;;3.47;1.70;;;1.50;99.00;;;;;;2065413;28;20593;-63
2023/02/22 00:29:55;;;;;;;2.97;1.58;;;1.60;99.20;;;;;;2069277;28;20251;-63
2023/02/22 00:31:01;;;;;;;3.28;1.60;;;1.50;99.30;;;;;;2069521;28;20186;-63
2023/02/22 00:32:04;;;;;;;1.73;1.60;;;1.50;99.60;;;;;;2066044;28;20272;-63
2023/02/22 00:33:11;;;;;;;3.25;1.70;;;1.50;99.50;;;;;;2069647;28;20189;-63
2023/02/22 00:34:16;;;;;;;4.13;2.25;;;1.50;99.60;;;;;;2069105;28;20281;-63
2023/02/22 00:35:25;;;;;;;3.00;1.90;;;1.50;99.60;;;;;;2068980;28;20702;-63
2023/02/22 00:36:27;;;;;;;3.80;1.80;;;1.50;99.60;;;;;;2067301;28;20229;-63
2023/02/22 00:37:34;;;;;;;2.95;2.08;;;1.50;99.50;;;;;;2069903;28;20190;-62
2023/02/22 00:38:41;;;;;;;3.15;1.60;;;1.50;99.50;;;;;;2069970;28;20197;-63
2023/02/22 00:39:47;;;;;;;2.88;1.83;;;1.50;99.30;;;;;;2065785;28;20332;-63
2023/02/22 00:40:52;;;;;;;3.65;1.70;;;1.50;99.10;;;;;;2069494;28;20567;-62
2023/02/22 00:41:58;;;;;;;2.50;2.13;;;1.50;99.10;;;;;;2069606;28;20210;-63
2023/02/22 00:43:04;;;;;;;2.78;1.92;;;1.50;99.40;;;;;;2069588;28;20273;-63
2023/02/22 00:44:10;;;;;;;2.90;2.10;;;1.50;99.90;;;;;;2069885;28;20190;-63
2023/02/22 00:45:21;;;;;;;3.30;1.90;;;1.50;99.70;;;;;;2069303;28;20194;-63
2023/02/22 00:46:26;;;;;;;3.15;1.73;;;1.50;99.90;;;;;;2069038;28;20186;-63
2023/02/22 00:47:32;;;;;;;3.58;1.80;;;1.50;99.80;;;;;;2069490;28;20582;-62
2023/02/22 00:48:38;;;;;;;3.58;1.60;;;1.50;99.80;;;;;;2069509;28;20234;-63
2023/02/22 00:49:44;;;;;;;3.20;1.55;;;1.40;99.90;;;;;;2069421;28;20253;-62
2023/02/22 00:50:53;;;;;;;2.00;1.48;;;1.40;99.90;;;;;;2066049;28;20700;-63
2023/02/22 00:52:00;;;;;;;3.70;1.45;;;1.40;99.90;;;;;;2068307;28;20780;-63
2023/02/22 00:53:06;;;;;;;3.55;1.88;;;1.40;99.90;;;;;;2069562;28;20671;-63
2023/02/22 00:54:13;;;;;;;3.60;1.83;;;1.40;99.90;;;;;;2066150;28;20231;-63
2023/02/22 00:55:25;;;;;;;3.65;1.88;;;1.40;99.90;;;;;;2069459;28;20686;-64
2023/02/22 00:56:33;;;;;;;4.75;1.83;;;1.40;99.90;;;;;;2069670;28;20182;-63
2023/02/22 00:57:39;;;;;;;2.50;1.60;;;1.40;99.90;;;;;;2069669;28;20671;-63
2023/02/22 00:58:44;;;;;;;3.65;1.70;;;1.40;99.90;;;;;;2069097;28;20361;-63
2023/02/22 00:59:50;;;;;;;3.00;2.47;;;1.40;99.90;;;;;;2069037;28;20228;-63
2023/02/22 01:00:56;;;;;;;2.65;1.70;;;1.40;99.90;;;;;;2069312;28;20193;-63
2023/02/22 01:02:01;;;;;;;2.55;1.55;;;1.40;99.90;;;;;;2069496;28;20211;-63
2023/02/22 01:03:07;;;;;;;4.32;1.60;;;1.30;99.90;;;;;;2068627;28;20186;-63
2023/02/22 01:04:09;;;;;;;3.42;1.80;;;1.30;99.90;;;;;;2068764;28;20569;-63
2023/02/22 01:05:19;;;;;;;2.72;1.63;;;1.30;99.90;;;;;;2069711;28;20218;-63
2023/02/22 01:06:25;;;;;;;3.00;1.88;;;1.30;99.90;;;;;;2069524;28;20213;-63
2023/02/22 01:07:31;;;;;;;3.85;1.42;;;1.30;99.90;;;;;;2069698;28;20216;-64
2023/02/22 01:08:36;;;;;;;3.90;1.83;;;1.30;99.90;;;;;;2069146;28;20228;-63
2023/02/22 01:09:43;;;;;;;2.22;1.52;;;1.30;99.90;;;;;;2069212;28;20592;-63
2023/02/22 01:10:51;;;;;;;3.03;1.42;;;1.30;99.90;;;;;;2069243;28;20198;-63
2023/02/22 01:11:57;;;;;;;3.65;1.80;;;1.30;99.90;;;;;;2066195;28;20181;-63
2023/02/22 01:13:07;;;;;;;2.10;1.77;;;1.30;99.90;;;;;;2068577;28;20193;-62
2023/02/22 01:14:10;;;;;;;3.28;1.60;;;1.30;99.90;;;;;;2068623;28;20241;-63
2023/02/22 01:15:20;;;;;;;3.83;2.08;;;1.30;99.90;;;;;;2065571;28;20744;-63
2023/02/22 01:16:26;;;;;;;4.47;1.98;;;1.20;99.90;;;;;;2069260;28;20722;-63
2023/02/22 01:17:32;;;;;;;3.60;2.05;;;1.30;99.90;;;;;;2069230;28;20182;-62
2023/02/22 01:18:38;;;;;;;3.15;1.80;;;1.30;99.90;;;;;;2065686;28;20746;-62
2023/02/22 01:19:43;;;;;;;2.50;1.67;;;1.30;99.90;;;;;;2069008;28;20224;-63
2023/02/22 01:20:49;;;;;;;3.03;1.88;;;1.30;99.90;;;;;;2069202;28;20648;-63
2023/02/22 01:21:55;;;;;;;4.88;2.30;;;1.30;99.90;;;;;;2069311;28;20210;-62
2023/02/22 01:23:05;;;;;;;2.22;1.40;;;1.30;99.90;;;;;;2069523;28;20674;-63
2023/02/22 01:24:10;;;;;;;4.22;1.70;;;1.30;99.90;;;;;;2069579;28;20213;-63
2023/02/22 01:25:22;;;;;;;4.32;1.80;;;1.30;99.90;;;;;;2069380;28;20177;-64
2023/02/22 01:26:28;;;;;;;4.20;1.90;;;1.30;99.90;;;;;;2069295;28;20663;-63
2023/02/22 01:27:34;;;;;;;5.97;1.80;;;1.30;99.90;;;;;;2069189;28;20269;-63
2023/02/22 01:28:40;;;;;;;4.50;1.63;;;1.30;99.90;;;;;;2065485;28;20590;-63
2023/02/22 01:29:49;;;;;;;3.15;1.90;;;1.30;99.90;;;;;;2068887;28;20271;-63
2023/02/22 01:30:54;;;;;;;3.85;2.17;;;1.30;99.90;;;;;;2069278;28;20574;-63
2023/02/22 01:32:00;;;;;;;2.92;1.60;;;1.30;99.90;;;;;;2065272;28;20186;-63
2023/02/22 01:33:06;;;;;;;2.78;1.95;;;1.30;99.90;;;;;;2069205;28;20317;-63
2023/02/22 01:34:10;;;;;;;4.03;1.85;;;1.30;99.90;;;;;;2068966;28;20193;-62
2023/02/22 01:35:21;;;;;;;3.80;2.15;;;1.30;99.90;;;;;;2069304;28;20186;-63
2023/02/22 01:36:27;;;;;;;2.65;1.92;;;1.30;99.90;;;;;;2065625;28;20710;-63
2023/02/22 01:37:33;;;;;;;2.05;1.80;;;1.20;99.90;;;;;;2068604;28;20190;-63
2023/02/22 01:38:39;;;;;;;3.72;1.70;;;1.20;99.90;;;;;;2069112;28;20659;-63
2023/02/22 01:39:44;;;;;;;2.88;1.80;;;1.30;99.90;;;;;;2065782;28;20202;-63
2023/02/22 01:40:51;;;;;;;3.25;1.63;;;1.30;99.90;;;;;;2069160;28;20194;-63
2023/02/22 01:41:56;;;;;;;2.33;1.50;;;1.30;99.90;;;;;;2069000;28;20190;-63
2023/02/22 01:43:24;;;;;;;3.83;1.83;;;1.20;99.90;;;;;;2069379;28;20659;-63
2023/02/22 01:44:34;;;;;;;3.75;1.75;;;1.20;99.90;;;;;;2062342;28;20265;-63
2023/02/22 01:45:47;;;;;;;2.25;1.60;;;1.20;99.90;;;;;;2069106;28;20566;-63
2023/02/22 01:46:55;;;;;;;2.83;1.58;;;1.20;99.90;;;;;;2064763;28;20224;-63
2023/02/22 01:48:31;;;;;;;4.30;1.73;;;1.20;99.90;;;;;;2068333;28;20379;-63
2023/02/22 01:49:48;;;;;;;3.38;1.90;;;1.20;99.90;;;;;;2068098;28;20770;-63
2023/02/22 01:51:19;;;;;;;2.60;1.60;;;1.20;99.90;;;;;;2066653;28;20188;-63
2023/02/22 01:52:22;;;;;;;2.45;1.60;;;1.20;99.90;;;;;;2066941;28;20229;-63
2023/02/22 01:54:09;;;;;;;3.05;1.77;;;1.20;99.90;;;;;;2068435;28;20281;-63
2023/02/22 01:55:16;;;;;;;2.78;1.85;;;1.20;99.90;;;;;;2065240;28;20229;-63
2023/02/22 01:56:25;;;;;;;2.47;1.63;;;1.10;99.90;;;;;;2061821;28;20191;-63
2023/02/22 01:57:36;;;;;;;2.85;1.85;;;1.10;99.90;;;;;;2068521;28;20197;-63
2023/02/22 01:58:48;;;;;;;4.30;2.10;;;1.10;99.90;;;;;;2068858;28;20589;-63
2023/02/22 01:59:58;;;;;;;2.55;1.80;;;1.10;99.90;;;;;;2065784;28;20299;-62
2023/02/22 02:01:05;;;;;;;3.15;2.00;;;1.10;99.90;;;;;;2068862;28;20256;-63
2023/02/22 02:02:09;;;;;;;3.33;1.85;;;1.00;99.90;;;;;;2068361;28;20277;-67
2023/02/22 02:03:26;;;;;;;2.90;2.15;;;1.00;99.90;;;;;;2064838;28;20647;-63
2023/02/22 02:04:33;;;;;;;2.40;1.70;;;1.00;99.90;;;;;;2063034;28;20225;-63
2023/02/22 02:05:38;;;;;;;3.13;1.80;;;1.10;99.90;;;;;;2065217;28;20248;-63
2023/02/22 02:06:44;;;;;;;8.50;2.08;;;1.10;99.90;;;;;;2068855;28;20252;-63
2023/02/22 02:07:49;;;;;;;2.80;1.70;;;1.10;99.90;;;;;;2068668;28;20194;-63
2023/02/22 02:09:04;;;;;;;3.75;2.15;;;1.00;99.90;;;;;;2068922;28;20667;-63
2023/02/22 02:10:14;;;;;;;4.18;2.03;;;1.00;99.90;;;;;;2069325;28;20194;-63
2023/02/22 02:11:24;;;;;;;3.10;1.98;;;1.00;99.90;;;;;;2068905;28;20194;-63
2023/02/22 02:12:29;;;;;;;3.28;2.50;;;0.90;99.90;;;;;;2068323;28;20651;-62
2023/02/22 02:13:31;;;;;;;3.25;1.88;;;1.00;99.90;;;;;;2060893;28;20245;-63
2023/02/22 02:14:39;;;;;;;3.38;1.70;;;1.00;99.90;;;;;;2065108;28;20198;-63
2023/02/22 02:15:45;;;;;;;3.67;2.53;;;1.00;99.90;;;;;;2061671;28;20194;-63
2023/02/22 02:16:52;;;;;;;2.58;1.73;;;1.00;99.90;;;;;;2068391;28;20197;-62
2023/02/22 02:18:01;;;;;;;2.97;1.75;;;1.00;99.90;;;;;;2059753;28;20203;-63
2023/02/22 02:19:07;;;;;;;3.70;1.98;;;1.00;99.90;;;;;;2058829;28;20559;-63
2023/02/22 02:20:31;;;;;;;2.92;1.70;;;1.00;99.90;;;;;;2068468;28;20221;-63
2023/02/22 02:22:12;;;;;;;1.85;1.63;;;1.00;99.90;;;;;;2063786;28;20753;-63
2023/02/22 02:23:51;;;;;;;3.20;1.58;;;1.00;99.90;;;;;;2066321;28;20189;-63
2023/02/22 02:25:19;;;;;;;2.97;1.75;;;1.00;99.90;;;;;;2066594;28;20280;-63
2023/02/22 02:26:47;;;;;;;2.90;1.70;;;1.00;99.90;;;;;;2065781;28;20643;-63
2023/02/22 02:28:26;;;;;;;2.72;1.95;;;1.00;99.90;;;;;;2066390;28;20288;-63
2023/02/22 02:29:49;;;;;;;3.60;1.92;;;1.00;99.90;;;;;;2067420;28;20861;-63
2023/02/22 02:31:21;;;;;;;3.47;2.22;;;1.00;99.90;;;;;;2069319;28;20185;-63
2023/02/22 02:32:47;;;;;;;4.03;2.10;;;0.90;99.90;;;;;;2064447;28;20670;-63
2023/02/22 02:34:26;;;;;;;3.85;2.35;;;0.90;99.90;;;;;;2059970;28;20279;-63
2023/02/22 02:35:48;;;;;;;3.63;2.05;;;0.90;99.90;;;;;;2065321;28;20557;-63
2023/02/22 02:37:15;;;;;;;2.42;1.80;;;0.90;99.90;;;;;;2069251;28;20224;-63
2023/02/22 02:38:45;;;;;;;5.00;2.08;;;0.90;99.90;;;;;;2071598;28;20180;-63
2023/02/22 02:40:11;;;;;;;2.58;1.67;;;0.90;99.90;;;;;;2069857;28;20221;-62
2023/02/22 02:41:45;;;;;;;2.50;1.83;;;0.90;99.90;;;;;;2066311;28;20209;-63
2023/02/22 02:43:13;;;;;;;3.00;1.80;;;0.90;99.90;;;;;;2067382;28;20277;-63
2023/02/22 02:44:36;;;;;;;3.13;2.00;;;0.90;99.90;;;;;;2067414;28;20222;-62
2023/02/22 02:46:11;;;;;;;3.50;1.73;;;0.90;99.90;;;;;;2067183;28;20190;-62
2023/02/22 02:47:24;;;;;;;3.10;1.80;;;0.90;99.90;;;;;;2069070;28;20884;-64
2023/02/22 02:48:33;;;;;;;3.10;1.88;;;0.90;99.90;;;;;;2068810;28;20190;-63
2023/02/22 02:49:50;;;;;;;4.75;1.88;;;0.90;99.90;;;;;;2068143;28;20352;-63
2023/02/22 02:51:00;;;;;;;2.95;1.92;;;0.90;99.90;;;;;;2068147;28;20189;-63
2023/02/22 02:52:06;;;;;;;2.58;1.70;;;0.90;99.90;;;;;;2064156;28;20181;-63
2023/02/22 02:53:12;;;;;;;2.38;1.73;;;0.90;99.90;;;;;;2061103;28;20182;-63
2023/02/22 02:54:19;;;;;;;2.63;1.83;;;0.90;99.90;;;;;;2061580;28;20191;-63
2023/02/22 02:55:28;;;;;;;4.80;1.98;;;0.90;99.90;;;;;;2061717;28;20190;-63
2023/02/22 02:56:34;;;;;;;4.40;2.08;;;0.90;99.90;;;;;;2062090;28;20191;-63
2023/02/22 02:57:40;;;;;;;3.63;1.70;;;0.90;99.90;;;;;;2068287;28;20197;-63
2023/02/22 02:58:49;;;;;;;2.08;1.48;;;0.90;99.90;;;;;;2068801;28;20186;-63
2023/02/22 02:59:55;;;;;;;2.92;2.00;;;0.90;99.90;;;;;;2068509;28;20225;-63
2023/02/22 03:01:05;;;;;;;3.97;1.88;;;0.90;99.90;;;;;;2068512;28;20197;-62
2023/02/22 03:02:26;;;;;;;5.63;2.05;;;0.90;99.90;;;;;;2064925;28;20227;-63
2023/02/22 03:03:41;;;;;;;4.43;1.95;;;0.90;99.90;;;;;;2067915;28;20237;-63
2023/02/22 03:05:06;;;;;;;2.55;1.98;;;0.90;99.90;;;;;;2064429;28;20359;-63
2023/02/22 03:06:47;;;;;;;2.83;1.70;;;0.90;99.90;;;;;;2069530;28;20197;-63
2023/02/22 03:08:26;;;;;;;4.88;2.35;;;0.90;99.90;;;;;;2070965;28;20299;-63
2023/02/22 03:09:54;;;;;;;3.00;1.80;;;0.90;99.90;;;;;;2067728;28;20218;-63
2023/02/22 03:11:13;;;;;;;4.00;1.67;;;0.90;99.90;;;;;;2065894;28;20683;-63
2023/02/22 03:12:44;;;;;;;7.13;1.70;;;0.90;99.90;;;;;;2065399;28;20185;-63
2023/02/22 03:14:07;;;;;;;2.03;1.60;;;0.90;99.90;;;;;;2065515;28;20188;-63
2023/02/22 03:15:13;;;;;;;3.13;1.70;;;0.90;99.90;;;;;;2063273;28;20197;-62
2023/02/22 03:16:51;;;;;;;2.35;1.65;;;0.90;99.90;;;;;;2069638;28;20177;-63
2023/02/22 03:18:27;;;;;;;2.05;1.70;;;0.90;99.90;;;;;;2069516;28;20269;-63
2023/02/22 03:19:44;;;;;;;2.50;1.60;;;0.90;99.90;;;;;;2067136;28;20251;-63
2023/02/22 03:21:21;;;;;;;3.05;1.63;;;0.90;99.90;;;;;;2068903;28;20568;-63
2023/02/22 03:22:36;;;;;;;2.67;1.73;;;0.80;99.90;;;;;;2069782;28;20204;-63
2023/02/22 03:24:03;;;;;;;3.85;1.90;;;0.80;99.90;;;;;;2070176;28;20217;-62
2023/02/22 03:25:09;;;;;;;2.85;1.77;;;0.80;99.90;;;;;;2070569;28;20565;-63
2023/02/22 03:26:24;;;;;;;4.72;1.88;;;0.80;99.90;;;;;;2067260;28;20265;-64
2023/02/22 03:27:48;;;;;;;2.38;1.75;;;0.70;99.90;;;;;;2070280;28;20201;-63
2023/02/22 03:28:55;;;;;;;2.75;1.80;;;0.80;99.90;;;;;;2068857;28;20197;-63
2023/02/22 03:30:08;;;;;;;3.05;1.77;;;0.80;99.90;;;;;;2059713;28;20284;-63
2023/02/22 03:31:21;;;;;;;5.10;2.08;;;0.80;99.90;;;;;;2063181;28;20202;-63
2023/02/22 03:32:34;;;;;;;3.25;1.88;;;0.70;99.90;;;;;;2060667;28;20191;-63
2023/02/22 03:33:57;;;;;;;2.03;1.83;;;0.80;99.90;;;;;;2069650;28;20205;-63
2023/02/22 03:35:25;;;;;;;3.85;2.00;;;0.80;99.90;;;;;;2068563;28;20247;-63
2023/02/22 03:36:37;;;;;;;5.10;1.90;;;0.70;99.90;;;;;;2068119;28;20204;-63
2023/02/22 03:37:48;;;;;;;2.10;1.65;;;0.80;99.90;;;;;;2063663;28;20186;-63
2023/02/22 03:38:59;;;;;;;4.38;1.98;;;0.80;99.90;;;;;;2063315;28;20195;-63
2023/02/22 03:40:24;;;;;;;3.22;1.88;;;0.80;99.90;;;;;;2059854;28;20694;-62
2023/02/22 03:41:32;;;;;;;2.35;1.80;;;0.70;99.90;;;;;;2061894;28;20709;-63
2023/02/22 03:42:42;;;;;;;4.80;1.75;;;0.70;99.90;;;;;;2065011;28;20252;-63
2023/02/22 03:43:54;;;;;;;2.72;1.90;;;0.70;99.90;;;;;;2063270;28;20190;-63
2023/02/22 03:45:05;;;;;;;2.30;1.88;;;0.70;99.90;;;;;;2063458;28;20194;-63
2023/02/22 03:46:12;;;;;;;2.15;1.70;;;0.80;99.90;;;;;;2069566;28;20197;-64
2023/02/22 03:47:27;;;;;;;3.65;1.80;;;0.80;99.90;;;;;;2069410;28;20645;-63
2023/02/22 03:48:56;;;;;;;4.22;2.05;;;0.80;99.90;;;;;;2063558;28;20746;-63
2023/02/22 03:50:14;;;;;;;4.05;1.80;;;0.80;99.90;;;;;;2065785;28;20241;-63
2023/02/22 03:51:20;;;;;;;3.13;2.10;;;0.80;99.90;;;;;;2063679;28;20738;-63
2023/02/22 03:52:26;;;;;;;3.45;2.05;;;0.70;99.90;;;;;;2063417;28;20629;-63
2023/02/22 03:53:35;;;;;;;2.63;1.70;;;0.70;99.90;;;;;;2069447;28;20701;-63
2023/02/22 03:54:42;;;;;;;6.40;1.98;;;0.70;99.90;;;;;;2069394;28;20277;-63
2023/02/22 03:55:50;;;;;;;2.08;1.65;;;0.70;99.90;;;;;;2069509;28;20222;-63
2023/02/22 03:57:08;;;;;;;6.28;1.90;;;0.70;99.90;;;;;;2060057;28;20194;-63
2023/02/22 03:58:11;;;;;;;2.13;1.70;;;0.70;99.90;;;;;;2069230;28;20196;-63
2023/02/22 03:59:17;;;;;;;2.50;1.73;;;0.70;99.90;;;;;;2066625;28;20198;-63
2023/02/22 04:00:29;;;;;;;4.55;2.13;;;0.70;99.90;;;;;;2069233;28;20213;-63
2023/02/22 04:01:35;;;;;;;3.28;2.20;;;0.70;99.90;;;;;;2069612;28;20190;-63
2023/02/22 04:02:41;;;;;;;3.72;2.15;;;0.70;99.90;;;;;;2069701;28;20186;-63
2023/02/22 04:03:47;;;;;;;2.88;1.92;;;0.70;99.90;;;;;;2069525;28;20333;-63
2023/02/22 04:04:52;;;;;;;3.00;1.80;;;0.70;99.90;;;;;;2070021;28;20197;-62
2023/02/22 04:05:58;;;;;;;2.88;1.98;;;0.60;99.90;;;;;;2065879;28;20196;-63
2023/02/22 04:07:03;;;;;;;3.50;1.95;;;0.60;99.90;;;;;;2062487;28;20214;-63
2023/02/22 04:08:05;;;;;;;3.53;2.28;;;0.60;99.90;;;;;;2068930;28;20232;-62
2023/02/22 04:09:10;;;;;;;5.32;2.10;;;0.60;99.90;;;;;;2069715;28;20190;-62
2023/02/22 04:10:15;;;;;;;3.90;1.80;;;0.60;99.90;;;;;;2066175;28;20193;-62
2023/02/22 04:11:21;;;;;;;4.00;2.40;;;0.70;99.90;;;;;;2069670;28;20193;-62
2023/02/22 04:12:26;;;;;;;3.47;2.72;;;0.60;99.90;;;;;;2069778;28;20198;-62
2023/02/22 04:13:31;;;;;;;3.63;2.00;;;0.70;99.90;;;;;;2069889;28;20205;-63
2023/02/22 04:14:37;;;;;;;4.22;2.35;;;0.80;99.90;;;;;;2066479;28;20655;-62
2023/02/22 04:15:42;;;;;;;2.85;2.50;;;0.80;99.90;;;;;;2069739;28;20241;-62
2023/02/22 04:16:48;;;;;;;3.45;1.80;;;0.80;99.90;;;;;;2069890;28;20225;-62
2023/02/22 04:17:53;;;;;;;3.28;2.13;;;0.80;99.90;;;;;;2069759;28;20280;-62
2023/02/22 04:18:59;;;;;;;4.32;2.10;;;0.80;99.90;;;;;;2070040;28;20198;-62
2023/02/22 04:20:06;;;;;;;4.20;2.00;;;0.80;99.90;;;;;;2069743;28;20587;-63
2023/02/22 04:21:09;;;;;;;3.13;1.98;;;0.80;99.90;;;;;;2070176;28;20228;-62
2023/02/22 04:22:15;;;;;;;3.95;2.00;;;0.80;99.90;;;;;;2066238;28;20647;-62
2023/02/22 04:23:20;;;;;;;5.80;2.45;;;0.80;99.90;;;;;;2069866;28;20220;-63
2023/02/22 04:24:26;;;;;;;4.68;2.08;;;0.80;99.90;;;;;;2069734;28;20194;-63
2023/02/22 04:25:31;;;;;;;3.47;2.10;;;0.80;99.90;;;;;;2069707;28;20193;-62
2023/02/22 04:26:37;;;;;;;3.03;2.05;;;0.80;99.90;;;;;;2066399;28;20185;-62
2023/02/22 04:27:42;;;;;;;5.07;2.22;;;0.80;99.90;;;;;;2069540;28;20972;-62
2023/02/22 04:28:48;;;;;;;3.88;2.05;;;0.80;99.90;;;;;;2069636;28;20556;-62
2023/02/22 04:29:53;;;;;;;3.85;2.17;;;0.80;99.90;;;;;;2066018;28;20210;-62
2023/02/22 04:30:59;;;;;;;3.60;2.53;;;0.80;99.90;;;;;;2069870;28;20202;-61
2023/02/22 04:32:04;;;;;;;2.85;1.90;;;0.80;99.90;;;;;;2069547;28;20272;-62
2023/02/22 04:33:09;;;;;;;2.55;1.67;;;0.80;99.90;;;;;;2069875;28;20659;-62
2023/02/22 04:34:15;;;;;;;4.20;2.13;;;0.80;99.90;;;;;;2066358;28;20190;-64
2023/02/22 04:35:21;;;;;;;4.70;2.45;;;0.80;99.90;;;;;;2069749;28;20182;-63
2023/02/22 04:36:26;;;;;;;2.92;2.10;;;0.80;99.90;;;;;;2069510;28;20249;-62
2023/02/22 04:37:33;;;;;;;3.63;1.92;;;0.80;99.90;;;;;;2069744;28;20221;-62
2023/02/22 04:38:39;;;;;;;3.25;2.10;;;0.80;99.90;;;;;;2070044;28;20186;-62
2023/02/22 04:39:44;;;;;;;4.07;2.50;;;0.90;99.90;;;;;;2069835;28;20686;-62
2023/02/22 04:40:50;;;;;;;3.28;2.20;;;0.80;99.90;;;;;;2069887;28;20281;-62
2023/02/22 04:41:55;;;;;;;3.22;1.90;;;0.80;99.90;;;;;;2065414;28;20190;-62
2023/02/22 04:43:01;;;;;;;4.07;2.38;;;0.80;99.90;;;;;;2069040;28;20277;-62
2023/02/22 04:44:04;;;;;;;4.40;2.35;;;0.80;99.90;;;;;;2068176;28;20265;-62
2023/02/22 04:45:10;;;;;;;4.50;2.28;;;0.80;99.90;;;;;;2069130;28;20182;-62
2023/02/22 04:46:16;;;;;;;5.60;2.00;;;0.80;99.90;;;;;;2066242;28;20194;-62
2023/02/22 04:47:21;;;;;;;4.13;2.45;;;0.80;99.90;;;;;;2068786;28;20191;-62
2023/02/22 04:48:26;;;;;;;5.25;2.00;;;0.80;99.90;;;;;;2068914;28;20695;-62
2023/02/22 04:49:31;;;;;;;4.10;2.10;;;0.80;99.90;;;;;;2069459;28;20216;-62
2023/02/22 04:50:38;;;;;;;3.75;1.85;;;0.80;99.90;;;;;;2069891;28;20667;-62
2023/02/22 04:51:43;;;;;;;4.03;1.95;;;0.90;99.90;;;;;;2069771;28;20305;-62
2023/02/22 04:52:49;;;;;;;4.60;2.10;;;0.90;99.90;;;;;;2069078;28;20205;-62
2023/02/22 04:53:55;;;;;;;3.67;1.90;;;0.80;99.90;;;;;;2065556;28;20212;-62
2023/02/22 04:55:00;;;;;;;4.10;1.95;;;0.80;99.90;;;;;;2069402;28;20607;-62
2023/02/22 04:56:05;;;;;;;2.83;1.90;;;0.90;99.90;;;;;;2069654;28;20195;-62
2023/02/22 04:57:10;;;;;;;2.70;2.17;;;0.80;99.90;;;;;;2069333;28;20213;-62
2023/02/22 04:58:15;;;;;;;4.25;1.98;;;0.80;99.90;;;;;;2066012;28;20231;-62
2023/02/22 04:59:20;;;;;;;3.85;1.80;;;0.80;99.90;;;;;;2069181;28;20255;-62
2023/02/22 05:00:26;;;;;;;2.45;1.77;;;0.80;99.90;;;;;;2068902;28;20586;-62
2023/02/22 05:01:35;;;;;;;3.03;1.90;;;0.90;99.90;;;;;;2068935;28;20241;-62
2023/02/22 05:02:38;;;;;;;3.90;1.92;;;0.90;99.90;;;;;;2069770;28;20329;-62
2023/02/22 05:03:44;;;;;;;3.15;2.00;;;0.90;99.90;;;;;;2069606;28;20200;-62
2023/02/22 05:04:49;;;;;;;2.95;1.75;;;0.90;99.90;;;;;;2063782;28;20705;-62
2023/02/22 05:05:55;;;;;;;2.83;1.52;;;0.90;99.90;;;;;;2064680;28;20300;-62
2023/02/22 05:07:01;;;;;;;3.45;1.80;;;0.90;99.90;;;;;;2072071;28;20647;-62
2023/02/22 05:08:04;;;;;;;3.63;1.90;;;0.90;99.90;;;;;;2070335;28;20183;-62
2023/02/22 05:09:09;;;;;;;2.90;1.80;;;0.90;99.90;;;;;;2069491;28;20197;-62
2023/02/22 05:10:16;;;;;;;4.18;1.52;;;0.90;99.90;;;;;;2066277;28;20201;-62
2023/02/22 05:11:21;;;;;;;3.10;1.80;;;0.80;99.90;;;;;;2068796;28;20289;-62
2023/02/22 05:12:26;;;;;;;3.78;1.77;;;0.90;99.90;;;;;;2068591;28;20194;-62
2023/02/22 05:13:32;;;;;;;3.97;2.08;;;0.80;99.90;;;;;;2065052;28;20228;-61
2023/02/22 05:14:37;;;;;;;3.90;2.13;;;0.80;99.90;;;;;;2069007;28;20201;-62
2023/02/22 05:15:43;;;;;;;1.90;1.70;;;0.90;99.90;;;;;;2069238;28;20213;-62
2023/02/22 05:16:49;;;;;;;4.10;2.22;;;0.90;99.90;;;;;;2069330;28;20190;-62
2023/02/22 05:17:54;;;;;;;5.47;2.30;;;0.90;99.90;;;;;;2065755;28;20202;-62
2023/02/22 05:19:00;;;;;;;7.07;3.60;;;0.90;99.90;;;;;;2069373;28;20287;-61
2023/02/22 05:20:07;;;;;;;7.15;3.95;;;0.90;99.90;;;;;;2069025;28;20226;-62
2023/02/22 05:21:10;;;;;;;22.98;9.88;;;0.90;99.90;;;;;;2069457;28;20193;-62
2023/02/22 05:22:15;;;;;;;24.35;10.40;;;0.90;99.90;;;;;;2069032;28;20690;-62
2023/02/22 05:23:20;;;;;;;19.75;8.90;;;0.90;99.90;;;;;;2069084;28;20209;-62
2023/02/22 05:24:26;;;;;;;20.48;9.55;;;1.00;99.90;;;;;;2069529;28;20188;-62
2023/02/22 05:25:32;;;;;;;14.38;8.00;;;1.10;99.90;;;;;;2065634;28;20264;-62
2023/02/22 05:26:39;;;;;;;17.02;7.95;;;1.10;99.90;;;;;;2069169;28;20189;-62
2023/02/22 05:27:43;;;;;;;18.58;8.38;;;1.10;99.90;;;;;;2068923;28;20252;-62
2023/02/22 05:28:48;;;;;;;19.30;9.00;;;1.10;99.90;;;;;;2069161;28;20269;-62
2023/02/22 05:29:54;;;;;;;18.95;10.15;;;1.10;99.90;;;;;;2066047;28;20301;-62
2023/02/22 05:30:59;;;;;;;21.27;9.68;;;1.10;99.90;;;;;;2068928;28;20749;-62
2023/02/22 05:32:05;;;;;;;19.17;9.95;;;1.10;99.90;;;;;;2069025;28;20224;-62
2023/02/22 05:33:09;;;;;;;19.20;9.13;;;1.10;99.90;;;;;;2069010;28;20186;-62
2023/02/22 05:34:15;;;;;;;18.50;8.43;;;1.10;99.90;;;;;;2069416;28;20194;-62
2023/02/22 05:35:22;;;;;;;11.48;5.25;;;1.10;99.90;;;;;;2069206;28;20613;-62
2023/02/22 05:36:26;;;;;;;10.77;5.13;;;1.10;99.90;;;;;;2069396;28;20212;-63
2023/02/22 05:37:32;;;;;;;9.05;3.78;;;1.10;99.90;;;;;;2065457;28;20216;-61
2023/02/22 05:38:43;;;;;;;8.40;4.97;;;1.10;99.90;;;;;;2068410;28;20324;-62
2023/02/22 05:39:48;;;;;;;6.85;4.18;;;1.20;99.90;;;;;;2068811;28;20294;-62
2023/02/22 05:40:53;;;;;;;7.25;3.38;;;1.20;99.90;;;;;;2065279;28;20280;-61
2023/02/22 05:41:58;;;;;;;6.93;4.50;;;1.20;99.90;;;;;;2068981;28;20181;-62
2023/02/22 05:43:04;;;;;;;8.45;4.53;;;1.20;99.90;;;;;;2069050;28;20222;-62
2023/02/22 05:44:09;;;;;;;3.95;2.85;;;1.20;99.90;;;;;;2068863;28;20186;-62
2023/02/22 05:45:17;;;;;;;6.63;3.83;;;1.20;99.90;;;;;;2062691;28;20201;-62
2023/02/22 05:46:21;;;;;;;7.57;3.47;;;1.20;99.90;;;;;;2069302;28;20186;-63
2023/02/22 05:47:27;;;;;;;5.50;3.50;;;1.20;99.90;;;;;;2069250;28;20193;-62
2023/02/22 05:48:33;;;;;;;4.57;3.05;;;1.20;99.90;;;;;;2065086;28;20185;-62
2023/02/22 05:49:38;;;;;;;3.70;2.60;;;1.20;99.90;;;;;;2068113;28;20805;-62
2023/02/22 05:50:43;;;;;;;5.50;2.88;;;1.20;99.90;;;;;;2068271;28;20592;-62
2023/02/22 05:51:45;;;;;;;4.88;3.40;;;1.20;99.90;;;;;;2068747;28;20659;-62
2023/02/22 05:52:51;;;;;;;3.88;2.42;;;1.20;99.90;;;;;;2065251;28;20551;-62
2023/02/22 05:53:56;;;;;;;6.05;3.00;;;1.20;99.90;;;;;;2068070;28;20317;-62
2023/02/22 05:55:01;;;;;;;4.03;2.97;;;1.20;99.90;;;;;;2066288;28;20216;-62
2023/02/22 05:56:05;;;;;;;4.97;2.83;;;1.20;99.90;;;;;;2068809;28;20212;-62
2023/02/22 05:57:09;;;;;;;6.63;2.75;;;1.20;99.90;;;;;;2068969;28;20194;-62
2023/02/22 05:58:09;;;;;;;4.30;2.90;;;1.20;99.90;;;;;;2068794;28;20182;-62
2023/02/22 05:59:15;;;;;;;4.32;2.70;;;1.20;99.90;;;;;;2069066;28;20647;-62
2023/02/22 06:00:29;;;;;;;4.25;3.17;;;1.20;99.90;;;;;;2069051;28;20213;-62
2023/02/22 06:01:35;;;;;;;4.15;3.20;;;1.20;99.90;;;;;;2065957;28;20193;-62
2023/02/22 06:02:40;;;;;;;4.97;3.03;;;1.20;99.90;;;;;;2068796;28;20194;-63
2023/02/22 06:03:48;;;;;;;4.45;2.90;;;1.20;99.90;;;;;;2068765;28;20276;-62
2023/02/22 06:04:51;;;;;;;6.78;2.90;;;1.20;99.90;;;;;;2065238;28;20670;-62
2023/02/22 06:05:57;;;;;;;4.03;2.58;;;1.20;99.90;;;;;;2068715;28;20224;-63
2023/02/22 06:07:02;;;;;;;9.65;4.53;;;1.20;99.90;;;;;;2068901;28;20199;-62